Time;durP1;ratioP1;P1;durP2;ratioP2;P2;SDS_P1;SDS_P2;PMS_P1;PMS_P2;Temp;Humidity;BMP_temperature;BMP_pressure;BME280_temperature;BME280_humidity;BME280_pressure;Samples;Min_cycle;Max_cycle;Signal;HPM_P1;HPM_P2
2023/03/14 00:01:13;;;;;;;17.48;5.15;;;9.30;99.90;;;;;;5111445;28;20514;-68
2023/03/14 00:03:40;;;;;;;18.77;4.68;;;9.30;99.90;;;;;;5113701;28;20495;-67
2023/03/14 00:06:09;;;;;;;13.88;4.28;;;9.40;99.90;;;;;;5114762;28;20054;-68
2023/03/14 00:08:38;;;;;;;25.67;5.55;;;9.40;99.90;;;;;;5114095;28;20052;-67
2023/03/14 00:11:06;;;;;;;21.20;5.10;;;9.50;99.90;;;;;;5115026;28;20035;-68
2023/03/14 00:13:33;;;;;;;23.80;5.70;;;9.60;99.90;;;;;;5114509;28;20499;-70
2023/03/14 00:16:04;;;;;;;20.95;6.03;;;9.70;99.90;;;;;;5114262;28;20048;-71
2023/03/14 00:18:31;;;;;;;22.60;5.53;;;9.80;99.90;;;;;;5114799;28;20044;-71
2023/03/14 00:20:59;;;;;;;24.35;5.85;;;9.80;99.90;;;;;;5111241;28;20089;-71
2023/03/14 00:23:26;;;;;;;18.67;4.78;;;9.80;99.90;;;;;;5113931;28;20048;-71
2023/03/14 00:25:54;;;;;;;17.52;4.63;;;9.70;99.90;;;;;;5114796;28;20039;-72
2023/03/14 00:28:21;;;;;;;22.70;5.05;;;9.80;99.90;;;;;;5113950;28;20055;-72
2023/03/14 00:30:48;;;;;;;26.98;5.93;;;9.80;99.90;;;;;;5114608;28;20104;-72
2023/03/14 00:33:14;;;;;;;20.08;5.10;;;9.70;99.90;;;;;;5115283;28;20427;-72
2023/03/14 00:35:41;;;;;;;16.80;4.70;;;9.70;99.90;;;;;;5112658;28;20061;-72
2023/03/14 00:38:08;;;;;;;22.83;5.18;;;9.60;99.90;;;;;;5114569;28;20051;-71
2023/03/14 00:40:39;;;;;;;21.65;4.65;;;9.60;99.90;;;;;;5113085;28;20472;-71
2023/03/14 00:43:07;;;;;;;;;;;9.60;99.90;;;;;;5114600;28;20313;-70
2023/03/14 00:45:34;;;;;;;15.98;4.70;;;9.60;99.90;;;;;;5120334;28;19965;-71
2023/03/14 00:48:01;;;;;;;16.55;4.28;;;9.60;99.90;;;;;;5120517;28;20392;-71
2023/03/14 00:50:28;;;;;;;16.80;4.70;;;9.60;99.90;;;;;;5120542;28;20047;-71
2023/03/14 00:52:55;;;;;;;14.68;3.70;;;9.60;99.90;;;;;;5118624;28;20134;-71
2023/03/14 00:55:22;;;;;;;17.58;5.00;;;9.60;99.90;;;;;;5114224;28;20048;-71
2023/03/14 00:57:49;;;;;;;20.63;4.75;;;9.60;99.90;;;;;;5112416;28;20051;-72
2023/03/14 01:00:18;;;;;;;19.95;4.90;;;9.70;99.90;;;;;;5113656;28;20051;-71
2023/03/14 01:02:45;;;;;;;19.17;4.35;;;9.60;99.90;;;;;;5112453;28;20060;-68
2023/03/14 01:05:12;;;;;;;18.08;4.07;;;9.60;99.90;;;;;;5110845;28;20109;-68
2023/03/14 01:07:39;;;;;;;21.40;4.78;;;9.60;99.90;;;;;;5113906;28;20051;-67
2023/03/14 01:10:07;;;;;;;16.02;4.60;;;9.50;99.90;;;;;;5110331;28;20046;-68
2023/03/14 01:12:34;;;;;;;16.27;4.40;;;9.60;99.90;;;;;;5111796;28;20107;-68
2023/03/14 01:15:01;;;;;;;17.40;3.78;;;9.50;99.90;;;;;;5113657;27;20069;-68
2023/03/14 01:17:29;;;;;;;27.05;5.25;;;9.60;99.90;;;;;;5113467;28;20820;-67
2023/03/14 01:19:56;;;;;;;13.90;3.75;;;9.70;99.90;;;;;;5111861;28;20112;-67
2023/03/14 01:22:23;;;;;;;17.60;4.15;;;9.70;99.90;;;;;;5113278;28;20043;-67
2023/03/14 01:24:50;;;;;;;14.50;3.63;;;9.70;99.90;;;;;;5112787;28;20548;-67
2023/03/14 01:27:17;;;;;;;14.10;4.00;;;9.90;99.90;;;;;;5112064;28;20503;-68
2023/03/14 01:29:44;;;;;;;13.95;4.20;;;10.00;99.90;;;;;;5112051;28;20047;-68
2023/03/14 01:32:10;;;;;;;14.10;3.95;;;10.00;99.90;;;;;;5111350;28;20047;-67
2023/03/14 01:34:39;;;;;;;16.77;3.50;;;10.10;99.90;;;;;;5112116;28;20047;-66
2023/03/14 01:37:07;;;;;;;15.18;3.65;;;10.10;99.90;;;;;;5111039;28;20054;-67
2023/03/14 01:39:34;;;;;;;11.32;2.85;;;10.10;99.90;;;;;;5111331;28;20059;-67
2023/03/14 01:42:02;;;;;;;18.45;4.25;;;10.20;99.90;;;;;;5113034;28;20039;-67
2023/03/14 01:44:29;;;;;;;9.63;3.22;;;10.20;99.90;;;;;;5112802;28;20101;-67
2023/03/14 01:46:56;;;;;;;15.02;4.03;;;10.20;99.90;;;;;;5111528;28;20050;-67
2023/03/14 01:49:27;;;;;;;15.05;4.28;;;10.20;99.90;;;;;;5111630;28;20105;-67
2023/03/14 01:51:59;;;;;;;13.10;3.05;;;10.30;99.90;;;;;;5112720;28;20552;-68
2023/03/14 01:54:30;;;;;;;12.95;3.35;;;10.20;99.90;;;;;;5112282;28;20445;-68
2023/03/14 01:56:58;;;;;;;;;;;10.30;99.90;;;;;;5111928;28;20047;-68
2023/03/14 01:59:26;;;;;;;11.68;3.40;;;10.20;99.90;;;;;;5111638;28;20350;-68
2023/03/14 02:01:55;;;;;;;15.80;3.35;;;10.20;99.90;;;;;;5112081;28;20353;-67
2023/03/14 02:04:22;;;;;;;13.60;3.65;;;10.20;99.90;;;;;;5110556;28;20141;-67
2023/03/14 02:06:56;;;;;;;10.95;3.72;;;10.20;99.90;;;;;;5112142;28;20051;-68
2023/03/14 02:09:24;;;;;;;6.57;2.90;;;10.10;99.90;;;;;;5111947;28;20047;-67
2023/03/14 02:11:52;;;;;;;15.02;3.25;;;10.10;99.90;;;;;;5110482;28;20047;-67
2023/03/14 02:14:28;;;;;;;11.15;3.15;;;10.10;99.90;;;;;;5110943;28;20074;-67
2023/03/14 02:16:55;;;;;;;9.00;2.72;;;10.10;99.90;;;;;;5111368;28;20059;-67
2023/03/14 02:19:33;;;;;;;13.38;3.33;;;9.90;99.90;;;;;;5112583;28;20167;-67
2023/03/14 02:22:07;;;;;;;13.73;3.15;;;10.00;99.90;;;;;;5110783;28;20048;-67
2023/03/14 02:24:43;;;;;;;14.23;3.15;;;9.90;99.90;;;;;;5109547;28;20044;-67
2023/03/14 02:27:13;;;;;;;9.38;2.72;;;9.40;99.90;;;;;;5111311;28;20449;-68
2023/03/14 02:29:46;;;;;;;7.20;2.70;;;9.80;99.90;;;;;;5108609;28;20048;-67
2023/03/14 02:32:15;;;;;;;10.65;3.58;;;9.80;99.90;;;;;;5111194;28;20512;-68
2023/03/14 02:34:44;;;;;;;16.30;2.78;;;9.80;99.90;;;;;;5111335;28;20060;-69
2023/03/14 02:37:13;;;;;;;11.88;2.90;;;9.70;99.90;;;;;;5109997;28;20058;-67
2023/03/14 02:39:44;;;;;;;11.18;2.42;;;9.70;99.90;;;;;;5111224;28;20055;-68
2023/03/14 02:42:13;;;;;;;13.32;3.05;;;9.70;99.90;;;;;;5111564;28;20345;-68
2023/03/14 02:44:53;;;;;;;11.60;3.65;;;9.70;99.90;;;;;;5110681;28;20047;-68
2023/03/14 02:47:23;;;;;;;8.23;2.45;;;9.60;99.90;;;;;;5112457;28;20055;-67
2023/03/14 02:49:51;;;;;;;11.40;3.28;;;9.60;99.90;;;;;;5110585;28;20058;-68
2023/03/14 02:52:18;;;;;;;10.07;2.83;;;9.50;99.90;;;;;;5112176;28;20044;-68
2023/03/14 02:54:45;;;;;;;11.38;3.05;;;9.40;99.90;;;;;;5112304;28;20047;-68
2023/03/14 02:57:13;;;;;;;13.88;2.83;;;9.40;99.90;;;;;;5111520;28;20048;-68
2023/03/14 02:59:40;;;;;;;13.93;3.40;;;9.40;99.90;;;;;;5111357;28;20503;-67
2023/03/14 03:02:07;;;;;;;8.88;3.15;;;9.40;99.90;;;;;;5112064;28;20445;-67
2023/03/14 03:04:34;;;;;;;9.43;3.63;;;9.30;99.90;;;;;;5111592;28;20062;-69
2023/03/14 03:07:01;;;;;;;13.30;3.72;;;9.30;99.90;;;;;;5112236;28;20403;-68
2023/03/14 03:09:28;;;;;;;8.88;3.92;;;9.20;99.90;;;;;;5111153;28;20051;-68
2023/03/14 03:11:55;;;;;;;7.82;3.65;;;9.20;99.90;;;;;;5108198;28;20048;-67
2023/03/14 03:14:23;;;;;;;9.25;3.33;;;9.20;99.90;;;;;;5110990;28;20055;-67
2023/03/14 03:16:50;;;;;;;11.65;3.80;;;9.10;99.90;;;;;;5112143;28;20047;-67
2023/03/14 03:19:17;;;;;;;9.88;3.90;;;9.10;99.90;;;;;;5111465;28;20047;-67
2023/03/14 03:21:45;;;;;;;16.42;4.35;;;9.00;99.90;;;;;;5111981;28;20069;-67
2023/03/14 03:24:11;;;;;;;14.90;4.10;;;9.00;99.90;;;;;;5111126;28;20040;-67
2023/03/14 03:26:38;;;;;;;19.27;5.10;;;8.90;99.90;;;;;;5112170;28;20083;-67
2023/03/14 03:29:05;;;;;;;12.82;3.88;;;8.80;99.90;;;;;;5111017;28;20108;-67
2023/03/14 03:31:33;;;;;;;16.02;4.50;;;8.80;99.90;;;;;;5110038;28;20044;-68
2023/03/14 03:34:00;;;;;;;14.82;4.45;;;8.80;99.90;;;;;;5108758;28;20052;-68
2023/03/14 03:36:28;;;;;;;18.50;4.57;;;8.70;99.90;;;;;;5113695;28;20051;-68
2023/03/14 03:38:54;;;;;;;10.77;4.15;;;8.70;99.90;;;;;;5115005;27;20112;-67
2023/03/14 03:41:21;;;;;;;10.45;4.78;;;8.70;99.90;;;;;;5114171;28;20089;-67
2023/03/14 03:43:48;;;;;;;14.18;4.40;;;8.70;99.90;;;;;;5115458;28;20047;-68
2023/03/14 03:46:15;;;;;;;11.10;4.28;;;8.70;99.90;;;;;;5114630;28;20052;-67
2023/03/14 03:48:43;;;;;;;11.93;3.92;;;8.70;99.90;;;;;;5115483;28;20074;-67
2023/03/14 03:51:13;;;;;;;10.90;4.68;;;8.70;99.90;;;;;;5113937;28;20043;-67
2023/03/14 03:53:40;;;;;;;14.27;4.70;;;8.70;99.90;;;;;;5114766;28;20079;-67
2023/03/14 03:56:08;;;;;;;10.90;4.22;;;8.70;99.90;;;;;;5115244;28;20339;-67
2023/03/14 03:58:37;;;;;;;15.32;5.28;;;8.70;99.90;;;;;;5114167;28;20385;-67
2023/03/14 04:01:04;;;;;;;18.70;5.97;;;8.70;99.90;;;;;;5114528;28;20376;-66
2023/03/14 04:03:31;;;;;;;15.27;4.68;;;8.70;99.90;;;;;;5113889;28;20052;-66
2023/03/14 04:06:04;;;;;;;16.42;5.22;;;8.70;99.90;;;;;;5114714;28;20055;-67
2023/03/14 04:08:31;;;;;;;17.55;4.90;;;8.70;99.90;;;;;;5111495;28;20410;-66
2023/03/14 04:10:58;;;;;;;21.70;5.35;;;8.70;99.90;;;;;;5113812;28;20047;-67
2023/03/14 04:13:26;;;;;;;14.55;5.30;;;8.70;99.90;;;;;;5113336;28;20463;-67
2023/03/14 04:15:53;;;;;;;14.98;4.85;;;8.70;99.90;;;;;;5113406;28;20051;-67
2023/03/14 04:18:20;;;;;;;17.27;5.45;;;8.70;99.90;;;;;;5114796;28;20092;-67
2023/03/14 04:20:52;;;;;;;20.95;5.88;;;8.70;99.90;;;;;;5113090;28;20051;-67
2023/03/14 04:23:20;;;;;;;15.52;4.90;;;8.70;99.90;;;;;;5113466;28;20076;-66
2023/03/14 04:25:47;;;;;;;22.90;6.22;;;8.70;99.90;;;;;;5113416;28;20047;-66
2023/03/14 04:28:14;;;;;;;21.25;4.88;;;8.70;99.90;;;;;;5110914;28;20052;-67
2023/03/14 04:30:41;;;;;;;16.70;5.45;;;8.70;99.90;;;;;;5113443;28;20512;-66
2023/03/14 04:33:08;;;;;;;15.50;5.53;;;8.70;99.90;;;;;;5112047;28;20044;-66
2023/03/14 04:35:35;;;;;;;24.75;5.75;;;8.70;99.90;;;;;;5113686;28;20100;-67
2023/03/14 04:38:02;;;;;;;19.70;7.20;;;8.70;99.90;;;;;;5114520;28;20119;-67
2023/03/14 04:40:30;;;;;;;21.75;6.07;;;8.70;99.90;;;;;;5112818;28;20040;-67
2023/03/14 04:42:57;;;;;;;15.98;6.18;;;8.70;99.90;;;;;;5112237;28;20043;-67
2023/03/14 04:45:24;;;;;;;15.05;6.03;;;8.60;99.90;;;;;;5114145;28;20047;-67
2023/03/14 04:47:51;;;;;;;11.85;6.15;;;8.60;99.90;;;;;;5109239;28;20055;-66
2023/03/14 04:50:18;;;;;;;22.10;6.80;;;8.70;99.90;;;;;;5111634;28;20052;-66
2023/03/14 04:52:45;;;;;;;14.05;7.47;;;8.60;99.90;;;;;;5113187;28;20094;-66
2023/03/14 04:55:12;;;;;;;22.70;7.93;;;8.60;99.90;;;;;;5111995;28;20088;-66
2023/03/14 04:57:40;;;;;;;19.13;6.80;;;8.60;99.90;;;;;;5111306;28;20422;-66
2023/03/14 05:00:09;;;;;;;13.55;6.60;;;8.50;99.90;;;;;;5111169;28;20048;-66
2023/03/14 05:02:36;;;;;;;11.55;6.78;;;8.50;99.90;;;;;;5112913;28;20058;-66
2023/03/14 05:05:03;;;;;;;16.15;7.60;;;8.50;99.90;;;;;;5108813;28;20096;-66
2023/03/14 05:07:30;;;;;;;12.40;6.50;;;8.50;99.90;;;;;;5112850;28;20051;-66
2023/03/14 05:09:57;;;;;;;15.70;6.57;;;8.50;99.90;;;;;;5110716;28;20055;-66
2023/03/14 05:12:24;;;;;;;15.75;7.15;;;8.50;99.90;;;;;;5111286;28;20114;-66
2023/03/14 05:14:52;;;;;;;14.00;7.05;;;8.50;99.90;;;;;;5111844;28;20491;-66
2023/03/14 05:17:19;;;;;;;17.08;7.53;;;8.50;99.90;;;;;;5111003;28;20117;-66
2023/03/14 05:19:46;;;;;;;18.63;7.13;;;8.50;99.90;;;;;;5109706;28;20086;-66
2023/03/14 05:22:14;;;;;;;15.65;6.70;;;8.50;99.90;;;;;;5112431;28;20036;-65
2023/03/14 05:24:41;;;;;;;14.15;7.07;;;8.40;99.90;;;;;;5110584;28;20051;-65
2023/03/14 05:27:08;;;;;;;17.80;6.75;;;8.40;99.90;;;;;;5111213;28;20104;-65
2023/03/14 05:29:35;;;;;;;13.07;4.75;;;8.40;99.90;;;;;;5111758;28;20495;-66
2023/03/14 05:32:03;;;;;;;10.75;5.25;;;8.40;99.90;;;;;;5110745;28;20047;-66
2023/03/14 05:34:30;;;;;;;14.52;4.82;;;8.40;99.90;;;;;;5110803;28;20043;-65
2023/03/14 05:36:57;;;;;;;14.43;6.30;;;8.40;99.90;;;;;;5112594;28;20044;-66
2023/03/14 05:39:24;;;;;;;15.27;5.60;;;8.40;99.90;;;;;;5112009;28;20101;-66
2023/03/14 05:41:51;;;;;;;16.65;5.90;;;8.40;99.90;;;;;;5112414;28;20097;-66
2023/03/14 05:44:18;;;;;;;11.20;5.43;;;8.40;99.90;;;;;;5111205;28;20536;-66
2023/03/14 05:46:45;;;;;;;9.63;5.10;;;8.40;99.90;;;;;;5111072;28;20104;-66
2023/03/14 05:49:13;;;;;;;9.27;4.43;;;8.30;99.90;;;;;;5111225;28;20096;-66
2023/03/14 05:51:40;;;;;;;8.23;4.75;;;8.30;99.90;;;;;;5112328;28;20040;-66
2023/03/14 05:54:07;;;;;;;16.13;4.70;;;8.30;99.90;;;;;;5111407;28;20055;-66
2023/03/14 05:56:34;;;;;;;12.82;5.40;;;8.30;99.90;;;;;;5112368;28;20414;-66
2023/03/14 05:59:03;;;;;;;9.75;5.18;;;8.30;99.90;;;;;;5110885;28;20044;-66
2023/03/14 06:01:30;;;;;;;10.55;4.53;;;8.30;99.90;;;;;;5110949;28;20085;-66
2023/03/14 06:03:57;;;;;;;6.57;3.75;;;8.30;99.90;;;;;;5110930;28;20516;-66
2023/03/14 06:06:25;;;;;;;13.40;3.58;;;8.30;99.90;;;;;;5110990;28;20047;-66
2023/03/14 06:08:52;;;;;;;6.07;3.63;;;8.30;99.90;;;;;;5110484;28;20044;-66
2023/03/14 06:11:19;;;;;;;7.88;3.58;;;8.30;99.90;;;;;;5110410;28;20135;-66
2023/03/14 06:13:46;;;;;;;5.65;3.30;;;8.30;99.90;;;;;;5109931;28;20108;-66
2023/03/14 06:16:14;;;;;;;10.48;3.92;;;8.30;99.90;;;;;;5109958;28;20052;-66
2023/03/14 06:18:41;;;;;;;5.60;3.35;;;8.30;99.90;;;;;;5110035;28;20075;-66
2023/03/14 06:21:08;;;;;;;11.23;4.25;;;8.30;99.90;;;;;;5110816;28;20047;-66
2023/03/14 06:23:36;;;;;;;8.23;3.10;;;8.20;99.90;;;;;;5109596;28;20055;-66
2023/03/14 06:26:04;;;;;;;10.43;3.10;;;8.30;99.90;;;;;;5110448;28;20043;-66
2023/03/14 06:28:31;;;;;;;3.00;1.50;;;8.20;99.90;;;;;;5110865;28;20039;-67
2023/03/14 06:30:59;;;;;;;6.38;1.50;;;7.90;99.90;;;;;;5110678;28;20113;-66
2023/03/14 06:33:26;;;;;;;5.82;2.03;;;7.70;99.90;;;;;;5111194;28;20495;-67
2023/03/14 06:35:53;;;;;;;10.00;1.77;;;7.40;99.90;;;;;;5109725;28;20100;-66
2023/03/14 06:38:20;;;;;;;5.72;1.83;;;7.20;99.90;;;;;;5109929;28;20093;-66
2023/03/14 06:40:48;;;;;;;13.60;2.40;;;7.10;99.90;;;;;;5111665;28;20054;-66
2023/03/14 06:43:15;;;;;;;14.27;2.67;;;7.00;99.90;;;;;;5109284;28;20047;-67
2023/03/14 06:45:42;;;;;;;19.08;3.47;;;6.80;99.90;;;;;;5111155;28;20495;-66
2023/03/14 06:48:09;;;;;;;14.88;2.80;;;6.70;99.90;;;;;;5110395;28;20055;-67
2023/03/14 06:50:36;;;;;;;14.27;3.72;;;6.50;99.90;;;;;;5109173;28;20059;-66
2023/03/14 06:53:03;;;;;;;19.90;4.03;;;6.20;99.90;;;;;;5110420;28;20407;-67
2023/03/14 06:55:30;;;;;;;11.25;2.78;;;6.00;99.90;;;;;;5108478;28;20040;-66
2023/03/14 06:57:58;;;;;;;16.23;2.80;;;5.80;99.90;;;;;;5109975;28;20575;-66
2023/03/14 07:00:26;;;;;;;17.42;3.67;;;5.70;99.90;;;;;;5107907;28;20055;-66
2023/03/14 07:02:52;;;;;;;13.30;2.75;;;5.50;99.90;;;;;;5108488;28;20122;-66
2023/03/14 07:05:19;;;;;;;7.47;2.38;;;5.40;99.90;;;;;;5110603;28;20048;-66
2023/03/14 07:07:46;;;;;;;12.35;3.38;;;5.30;99.90;;;;;;5110900;28;20063;-66
2023/03/14 07:10:13;;;;;;;7.95;2.47;;;5.20;99.90;;;;;;5112106;28;20051;-66
2023/03/14 07:12:40;;;;;;;12.32;2.45;;;5.10;99.90;;;;;;5115742;28;20051;-66
2023/03/14 07:15:09;;;;;;;19.10;4.60;;;5.00;99.90;;;;;;5114571;28;20039;-67
2023/03/14 07:17:36;;;;;;;8.23;2.05;;;4.90;99.90;;;;;;5115065;28;20089;-66
2023/03/14 07:20:05;;;;;;;5.30;1.80;;;4.80;99.90;;;;;;5115963;28;20091;-66
2023/03/14 07:22:32;;;;;;;8.18;2.10;;;4.70;99.90;;;;;;5112877;28;20499;-66
2023/03/14 07:24:59;;;;;;;4.93;1.17;;;4.60;99.90;;;;;;5112729;28;20048;-66
2023/03/14 07:27:26;;;;;;;8.10;1.60;;;4.50;99.90;;;;;;5115133;28;20556;-66
2023/03/14 07:29:52;;;;;;;4.78;1.30;;;4.40;99.90;;;;;;5115396;28;20059;-66
2023/03/14 07:32:21;;;;;;;5.50;1.30;;;4.40;99.90;;;;;;5114820;28;20368;-66
2023/03/14 07:34:48;;;;;;;4.68;1.35;;;4.30;99.90;;;;;;5113019;28;20044;-66
2023/03/14 07:37:14;;;;;;;8.00;2.08;;;4.30;99.90;;;;;;5113406;28;20051;-65
2023/03/14 07:39:41;;;;;;;6.40;1.83;;;4.40;99.90;;;;;;5114700;28;20108;-65
2023/03/14 07:42:08;;;;;;;8.82;1.25;;;4.40;99.90;;;;;;5115181;28;20039;-66
2023/03/14 07:44:35;;;;;;;6.90;1.40;;;4.40;99.90;;;;;;5112250;28;20087;-66
2023/03/14 07:47:02;;;;;;;4.05;1.63;;;4.40;99.90;;;;;;5115147;28;20100;-66
2023/03/14 07:49:30;;;;;;;6.30;1.60;;;4.40;99.90;;;;;;5114869;28;20040;-67
2023/03/14 07:51:57;;;;;;;3.53;1.50;;;4.40;99.90;;;;;;5114562;28;20036;-66
2023/03/14 07:54:24;;;;;;;7.25;2.00;;;4.40;99.90;;;;;;5115036;28;20047;-67
2023/03/14 07:56:52;;;;;;;5.95;1.40;;;3.90;99.90;;;;;;5113689;28;20101;-67
2023/03/14 07:59:19;;;;;;;1.95;1.10;;;4.50;99.90;;;;;;5113105;28;20474;-66
2023/03/14 08:01:46;;;;;;;5.03;1.20;;;4.50;99.90;;;;;;5111321;28;20043;-66
2023/03/14 08:04:13;;;;;;;10.27;2.17;;;4.50;99.90;;;;;;5113504;28;20477;-66
2023/03/14 08:06:41;;;;;;;6.18;1.92;;;4.50;99.90;;;;;;5114272;28;20053;-66
2023/03/14 08:09:08;;;;;;;7.63;1.50;;;4.60;99.90;;;;;;5114636;28;20499;-66
2023/03/14 08:11:35;;;;;;;4.25;1.52;;;4.70;99.90;;;;;;5114496;28;20083;-66
2023/03/14 08:14:02;;;;;;;5.07;1.42;;;4.70;99.90;;;;;;5112086;28;20097;-66
2023/03/14 08:16:29;;;;;;;4.68;1.50;;;4.80;99.90;;;;;;5114594;28;20044;-67
2023/03/14 08:18:56;;;;;;;3.78;1.30;;;4.90;99.90;;;;;;5114625;28;20051;-67
2023/03/14 08:21:23;;;;;;;5.60;1.58;;;5.20;99.90;;;;;;5112015;28;20047;-67
2023/03/14 08:23:51;;;;;;;4.30;1.30;;;5.30;99.90;;;;;;5114330;28;20047;-67
2023/03/14 08:26:18;;;;;;;7.57;2.72;;;5.30;99.90;;;;;;5112845;28;20047;-67
2023/03/14 08:28:45;;;;;;;7.05;1.92;;;5.40;99.90;;;;;;5112425;28;20055;-67
2023/03/14 08:31:12;;;;;;;11.27;2.13;;;5.50;99.90;;;;;;5112837;28;20081;-66
2023/03/14 08:33:38;;;;;;;6.63;2.25;;;5.70;99.90;;;;;;5114269;28;20048;-67
2023/03/14 08:36:06;;;;;;;11.95;2.17;;;5.80;99.90;;;;;;5111411;28;20089;-67
2023/03/14 08:38:33;;;;;;;9.57;2.58;;;6.00;99.90;;;;;;5113072;28;20051;-68
2023/03/14 08:41:03;;;;;;;8.35;2.08;;;6.20;99.90;;;;;;5113440;28;20051;-67
2023/03/14 08:43:30;;;;;;;8.38;2.78;;;6.00;99.90;;;;;;5114027;28;20054;-67
2023/03/14 08:45:58;;;;;;;11.18;2.97;;;6.60;99.90;;;;;;5113955;28;20054;-67
2023/03/14 08:48:25;;;;;;;15.90;3.55;;;6.80;99.90;;;;;;5112255;28;20039;-67
2023/03/14 08:50:52;;;;;;;13.40;3.38;;;6.80;99.90;;;;;;5113889;28;20044;-68
2023/03/14 08:53:22;;;;;;;13.18;3.17;;;6.90;99.90;;;;;;5110394;28;20395;-67
2023/03/14 08:55:52;;;;;;;14.00;3.50;;;7.00;99.90;;;;;;5112036;28;21243;-67
2023/03/14 08:58:21;;;;;;;;;;;7.10;99.90;;;;;;5114321;28;20047;-67
2023/03/14 09:00:48;;;;;;;13.75;3.10;;;7.10;99.90;;;;;;5113746;28;20319;-67
2023/03/14 09:03:15;;;;;;;14.00;3.33;;;7.20;99.90;;;;;;5112959;28;20035;-68
2023/03/14 09:05:42;;;;;;;12.27;2.97;;;7.20;99.90;;;;;;5112089;28;20491;-68
2023/03/14 09:08:09;;;;;;;19.08;3.83;;;7.30;99.90;;;;;;5112449;28;20055;-68
2023/03/14 09:10:36;;;;;;;13.85;3.40;;;7.30;99.90;;;;;;5109819;28;20088;-68
2023/03/14 09:13:02;;;;;;;24.98;3.92;;;7.70;99.90;;;;;;5113532;28;20449;-67
2023/03/14 09:15:31;;;;;;;12.77;3.60;;;8.20;99.90;;;;;;5113238;28;20071;-68
2023/03/14 09:17:58;;;;;;;16.38;3.70;;;8.70;99.90;;;;;;5112649;28;20126;-68
2023/03/14 09:20:25;;;;;;;20.63;4.18;;;9.00;99.90;;;;;;5112143;28;20116;-68
2023/03/14 09:22:52;;;;;;;12.85;3.92;;;8.80;99.90;;;;;;5110431;28;20044;-68
2023/03/14 09:25:19;;;;;;;20.90;4.20;;;8.60;99.90;;;;;;5111806;28;20496;-68
2023/03/14 09:27:46;;;;;;;15.20;4.20;;;8.20;99.90;;;;;;5106986;28;20048;-67
2023/03/14 09:30:13;;;;;;;20.05;4.75;;;7.90;99.90;;;;;;5110536;28;20510;-67
2023/03/14 09:32:41;;;;;;;19.02;4.25;;;7.70;99.90;;;;;;5110980;28;20036;-68
2023/03/14 09:35:09;;;;;;;16.50;3.65;;;7.60;99.90;;;;;;5112167;28;20043;-68
2023/03/14 09:37:36;;;;;;;17.40;3.50;;;7.50;99.90;;;;;;5110285;28;20062;-67
2023/03/14 09:40:09;;;;;;;12.75;2.95;;;7.20;99.90;;;;;;5111244;28;20093;-67
2023/03/14 09:42:38;;;;;;;24.30;3.88;;;7.20;99.90;;;;;;5111297;28;20048;-67
2023/03/14 09:45:11;;;;;;;11.38;3.17;;;7.20;99.90;;;;;;5109442;28;20427;-67
2023/03/14 09:47:38;;;;;;;15.82;3.58;;;7.30;99.90;;;;;;5112257;28;20043;-67
2023/03/14 09:50:14;;;;;;;19.35;3.25;;;7.30;99.90;;;;;;5111166;28;20112;-68
2023/03/14 09:52:42;;;;;;;13.63;3.40;;;7.30;99.90;;;;;;5110144;28;20140;-68
2023/03/14 09:55:13;;;;;;;11.98;3.30;;;7.30;99.90;;;;;;5110683;28;20100;-67
2023/03/14 09:57:41;;;;;;;15.68;3.25;;;7.30;99.90;;;;;;5112247;28;20043;-67
2023/03/14 10:00:16;;;;;;;19.60;3.83;;;7.30;99.90;;;;;;5111444;28;20407;-68
2023/03/14 10:02:53;;;;;;;27.30;4.43;;;7.30;99.90;;;;;;5111421;28;20075;-67
2023/03/14 10:05:24;;;;;;;14.02;4.47;;;7.30;99.90;;;;;;5109450;28;20054;-67
2023/03/14 10:07:51;;;;;;;18.23;3.67;;;7.20;99.90;;;;;;5111588;28;20438;-67
2023/03/14 10:10:20;;;;;;;15.90;4.05;;;7.10;99.90;;;;;;5112059;28;20186;-67
2023/03/14 10:12:55;;;;;;;12.13;3.13;;;7.20;99.90;;;;;;5111406;28;20039;-67
2023/03/14 10:15:26;;;;;;;14.52;3.15;;;7.20;99.90;;;;;;5110971;28;20140;-67
2023/03/14 10:17:53;;;;;;;12.95;3.00;;;7.50;99.90;;;;;;5111791;28;20088;-67
2023/03/14 10:20:33;;;;;;;14.07;3.92;;;7.80;99.90;;;;;;5111421;28;20050;-67
2023/03/14 10:23:03;;;;;;;18.45;3.75;;;8.50;99.90;;;;;;5110692;28;20122;-68
2023/03/14 10:25:31;;;;;;;18.98;4.75;;;8.90;99.90;;;;;;5108582;28;20411;-68
2023/03/14 10:27:59;;;;;;;10.30;2.72;;;8.70;99.90;;;;;;5110953;28;20059;-68
2023/03/14 10:30:43;;;;;;;12.40;3.33;;;9.40;99.90;;;;;;5109514;28;20039;-68
2023/03/14 10:33:12;;;;;;;16.10;3.13;;;9.60;99.90;;;;;;5110713;28;20042;-68
2023/03/14 10:35:41;;;;;;;9.95;3.10;;;9.70;99.90;;;;;;5111287;28;20047;-68
2023/03/14 10:38:14;;;;;;;10.48;2.65;;;9.80;99.90;;;;;;5111530;28;20097;-68
2023/03/14 10:40:48;;;;;;;12.88;3.33;;;9.90;99.90;;;;;;5111404;28;20051;-69
2023/03/14 10:43:21;;;;;;;16.17;3.42;;;10.20;99.90;;;;;;5143593;27;20961;-68
2023/03/14 10:45:57;;;;;;;11.50;2.70;;;10.90;99.90;;;;;;5112519;28;20051;-67
2023/03/14 10:48:30;;;;;;;11.38;2.83;;;12.40;99.90;;;;;;5114268;28;20483;-68
2023/03/14 10:51:04;;;;;;;10.40;2.67;;;13.40;98.00;;;;;;5114878;28;20499;-67
2023/03/14 10:53:39;;;;;;;14.20;2.42;;;12.90;97.80;;;;;;5109983;28;20527;-68
2023/03/14 10:56:07;;;;;;;9.18;2.40;;;12.00;99.80;;;;;;5113844;28;20518;-68
2023/03/14 10:58:38;;;;;;;6.75;2.30;;;11.90;99.70;;;;;;5116202;28;20047;-68
2023/03/14 11:01:23;;;;;;;6.80;2.38;;;12.30;99.70;;;;;;5114118;28;20108;-67
2023/03/14 11:03:55;;;;;;;11.75;3.20;;;12.20;96.50;;;;;;5113809;28;20483;-68
2023/03/14 11:06:29;;;;;;;10.57;2.03;;;11.60;98.70;;;;;;5114292;28;20100;-68
2023/03/14 11:09:05;;;;;;;8.60;1.92;;;11.00;96.90;;;;;;5115311;28;20058;-67
2023/03/14 11:11:32;;;;;;;10.35;2.50;;;12.10;98.80;;;;;;5115718;28;20480;-68
2023/03/14 11:14:13;;;;;;;11.85;2.78;;;12.70;98.20;;;;;;5114993;28;20043;-67
2023/03/14 11:16:50;;;;;;;7.30;2.13;;;12.60;96.50;;;;;;5113175;28;20453;-67
2023/03/14 11:19:39;;;;;;;7.43;1.88;;;12.00;95.50;;;;;;5115443;28;20047;-67
2023/03/14 11:22:22;;;;;;;6.13;1.77;;;11.30;96.10;;;;;;5147295;27;20055;-67
2023/03/14 11:25:10;;;;;;;9.18;2.13;;;11.00;94.20;;;;;;5113110;28;20122;-67
2023/03/14 11:27:44;;;;;;;14.00;2.53;;;11.50;93.00;;;;;;5115050;28;20051;-68
2023/03/14 11:30:20;;;;;;;6.88;1.80;;;12.50;93.70;;;;;;5113565;28;20484;-67
2023/03/14 11:32:54;;;;;;;6.90;2.05;;;13.70;92.10;;;;;;5115313;28;20044;-67
2023/03/14 11:35:26;;;;;;;4.88;1.48;;;14.40;88.70;;;;;;5114214;28;20101;-68
2023/03/14 11:38:00;;;;;;;6.25;1.83;;;14.70;83.50;;;;;;5112167;28;20491;-68
2023/03/14 11:40:28;;;;;;;7.80;1.90;;;15.50;86.40;;;;;;5115565;28;20043;-68
2023/03/14 11:43:01;;;;;;;4.75;1.55;;;16.60;87.80;;;;;;5113084;28;20126;-68
2023/03/14 11:45:35;;;;;;;10.38;2.22;;;17.60;83.10;;;;;;5112489;28;20043;-68
2023/03/14 11:48:14;;;;;;;5.15;1.38;;;18.70;78.90;;;;;;5113950;28;20044;-67
2023/03/14 11:50:44;;;;;;;10.10;2.10;;;19.30;77.40;;;;;;5114195;28;20052;-69
2023/03/14 11:53:17;;;;;;;7.40;1.70;;;19.60;73.50;;;;;;5107006;28;20040;-69
2023/03/14 11:55:45;;;;;;;5.93;2.15;;;19.50;70.50;;;;;;5107433;28;20067;-68
2023/03/14 11:58:18;;;;;;;7.40;2.10;;;19.00;68.40;;;;;;5108789;28;20051;-69
2023/03/14 12:00:46;;;;;;;5.68;1.63;;;17.70;67.00;;;;;;5111069;28;20062;-69
2023/03/14 12:03:20;;;;;;;5.43;1.70;;;18.20;70.40;;;;;;5113822;28;20043;-67
2023/03/14 12:05:55;;;;;;;6.13;2.40;;;17.10;68.40;;;;;;5111891;28;20052;-68
2023/03/14 12:08:45;;;;;;;8.23;1.77;;;16.20;70.20;;;;;;5111797;28;20104;-67
2023/03/14 12:11:20;;;;;;;5.90;2.50;;;15.20;71.30;;;;;;5112992;28;20604;-68
2023/03/14 12:13:49;;;;;;;6.55;1.88;;;14.30;73.70;;;;;;5110641;28;20059;-68
2023/03/14 12:16:40;;;;;;;11.23;1.60;;;13.90;72.50;;;;;;5113558;28;20044;-67
2023/03/14 12:19:39;;;;;;;7.22;2.00;;;13.60;75.50;;;;;;5102543;27;20048;-67
2023/03/14 12:22:19;;;;;;;7.32;2.00;;;13.00;78.70;;;;;;5110709;28;20184;-67
2023/03/14 12:24:52;;;;;;;9.40;2.15;;;12.30;79.30;;;;;;5110400;28;20047;-67
2023/03/14 12:27:43;;;;;;;10.93;2.63;;;12.00;80.60;;;;;;5111914;28;20104;-66
2023/03/14 12:30:22;;;;;;;13.75;2.80;;;11.70;79.40;;;;;;5112256;28;20437;-67
2023/03/14 12:33:20;;;;;;;14.52;3.03;;;11.80;84.70;;;;;;5112009;28;20097;-67
2023/03/14 12:35:49;;;;;;;8.57;2.15;;;11.70;81.40;;;;;;5114259;27;20085;-68
2023/03/14 12:38:19;;;;;;;7.85;2.05;;;11.50;81.60;;;;;;5113745;28;20043;-68
2023/03/14 12:40:57;;;;;;;8.60;2.20;;;11.10;84.70;;;;;;5113870;28;20100;-68
2023/03/14 12:43:27;;;;;;;11.45;2.33;;;10.90;88.10;;;;;;5112946;28;20514;-67
2023/03/14 12:46:19;;;;;;;7.82;2.35;;;10.70;86.10;;;;;;5114078;28;20035;-67
2023/03/14 12:48:48;;;;;;;11.82;2.30;;;10.80;88.00;;;;;;5110657;28;20407;-67
2023/03/14 12:51:16;;;;;;;9.27;2.95;;;11.60;87.10;;;;;;5112549;28;20052;-67
2023/03/14 12:54:14;;;;;;;10.50;2.78;;;12.00;85.70;;;;;;5111807;28;20047;-67
2023/03/14 12:56:58;;;;;;;9.30;2.38;;;11.30;84.50;;;;;;5146539;27;20517;-67
2023/03/14 12:59:36;;;;;;;8.90;1.95;;;10.60;87.80;;;;;;5110204;28;20055;-67